Time;durP1;ratioP1;P1;durP2;ratioP2;P2;SDS_P1;SDS_P2;PMS_P1;PMS_P2;Temp;Humidity;BMP_temperature;BMP_pressure;BME280_temperature;BME280_humidity;BME280_pressure;Samples;Min_cycle;Max_cycle;Signal;HPM_P1;HPM_P2
2021/08/30 00:00:50;;;;;;;23.35;19.70;;;;;;;12.34;81.31;99942.61;1757531;81;26080;-69
2021/08/30 00:03:17;;;;;;;27.20;19.42;;;;;;;12.30;81.19;99941.13;1758000;81;25826;-67
2021/08/30 00:05:44;;;;;;;27.05;20.30;;;;;;;12.31;81.42;99933.80;1758348;81;25746;-68
2021/08/30 00:08:10;;;;;;;25.20;19.02;;;;;;;12.26;81.33;99933.42;1758066;81;27531;-67
2021/08/30 00:10:38;;;;;;;21.55;18.32;;;;;;;12.23;81.08;99937.36;1758273;81;25654;-68
2021/08/30 00:13:05;;;;;;;21.97;18.20;;;;;;;12.19;80.96;99934.52;1758264;81;25718;-67
2021/08/30 00:15:32;;;;;;;28.00;19.95;;;;;;;12.15;81.01;99939.77;1757993;81;26242;-68
2021/08/30 00:17:58;;;;;;;22.52;17.30;;;;;;;12.12;80.83;99943.70;1758225;81;25689;-68
2021/08/30 00:20:25;;;;;;;21.65;17.98;;;;;;;12.08;80.68;99949.55;1758273;81;28149;-68
2021/08/30 00:22:52;;;;;;;23.00;16.57;;;;;;;12.03;80.57;99944.32;1758025;81;25996;-68
2021/08/30 00:25:18;;;;;;;23.00;18.62;;;;;;;11.96;80.35;99938.84;1758184;81;25809;-68
2021/08/30 00:27:44;;;;;;;22.85;18.62;;;;;;;11.94;80.61;99945.15;1758294;81;25699;-68
2021/08/30 00:30:12;;;;;;;23.70;18.70;;;;;;;11.91;80.77;99943.66;1758061;81;25854;-68
2021/08/30 00:32:39;;;;;;;21.05;18.65;;;;;;;11.86;80.76;99946.52;1758432;81;27396;-68
2021/08/30 00:35:06;;;;;;;26.65;18.65;;;;;;;11.81;80.70;99951.55;1761108;81;25746;-68
2021/08/30 00:37:34;;;;;;;23.90;17.80;;;;;;;11.77;80.70;99954.13;1761359;81;25723;-68
2021/08/30 00:40:01;;;;;;;30.08;19.67;;;;;;;11.73;80.69;99957.80;1761422;81;25705;-68
2021/08/30 00:42:28;;;;;;;21.42;17.55;;;;;;;11.67;80.67;99957.19;1761525;81;25678;-68
2021/08/30 00:44:54;;;;;;;23.87;18.45;;;;;;;11.64;80.81;99959.19;1761408;81;28062;-68
2021/08/30 00:47:22;;;;;;;21.20;18.50;;;;;;;11.61;80.89;99957.12;1761536;81;25960;-68
2021/08/30 00:49:53;;;;;;;23.10;18.10;;;;;;;11.57;80.96;99961.03;1761530;81;25766;-68
2021/08/30 00:52:20;;;;;;;25.17;18.70;;;;;;;11.55;81.05;99957.86;1761554;81;26415;-68
2021/08/30 00:54:47;;;;;;;23.98;19.77;;;;;;;11.54;81.22;99960.35;1761563;81;25833;-69
2021/08/30 00:57:14;;;;;;;22.48;18.27;;;;;;;11.51;81.29;99957.47;1761466;81;28387;-68
2021/08/30 00:59:42;;;;;;;23.15;18.75;;;;;;;11.48;81.20;99954.86;1761460;81;25773;-67
2021/08/30 01:02:10;;;;;;;29.72;20.08;;;;;;;11.46;81.30;99953.58;1761512;81;26512;-67
2021/08/30 01:04:41;;;;;;;21.48;18.95;;;;;;;11.44;81.49;99945.80;1761454;81;26068;-67
2021/08/30 01:07:34;;;;;;;28.65;19.73;;;;;;;11.42;81.55;99941.25;1761413;81;25724;-67
2021/08/30 01:10:14;;;;;;;22.75;18.65;;;;;;;11.41;81.68;99939.67;1760548;81;28103;-67
2021/08/30 01:12:52;;;;;;;24.37;18.50;;;;;;;11.40;81.69;99932.66;1761439;81;25771;-67
2021/08/30 01:15:32;;;;;;;26.68;20.05;;;;;;;11.38;81.79;99930.27;1761462;81;25718;-67
2021/08/30 01:18:02;;;;;;;22.82;18.52;;;;;;;11.37;81.92;99930.05;1761496;81;26117;-68
2021/08/30 01:20:43;;;;;;;22.62;19.20;;;;;;;11.35;81.68;99926.84;1761373;81;25698;-67
2021/08/30 01:23:11;;;;;;;25.80;19.75;;;;;;;11.32;81.90;99922.10;1761394;81;27522;-68
2021/08/30 01:25:37;;;;;;;28.62;19.67;;;;;;;11.33;81.89;99926.95;1761390;81;25824;-68
2021/08/30 01:28:06;;;;;;;22.27;18.02;;;;;;;11.32;81.98;99932.12;1761499;81;25822;-67
2021/08/30 01:30:39;;;;;;;20.72;17.40;;;;;;;11.30;81.69;99931.65;1761483;81;25993;-67
2021/08/30 01:33:06;;;;;;;19.07;16.52;;;;;;;11.30;81.59;99941.13;1734210;81;25931;-68
2021/08/30 01:35:34;;;;;;;20.90;16.75;;;;;;;11.28;81.48;99947.42;1758397;81;27392;-68
2021/08/30 01:38:09;;;;;;;22.22;16.97;;;;;;;11.25;81.59;99942.08;1758060;81;25820;-68
2021/08/30 01:40:38;;;;;;;21.00;17.80;;;;;;;11.23;81.58;99938.12;1758160;81;25748;-69
2021/08/30 01:43:06;;;;;;;23.35;17.52;;;;;;;11.19;81.55;99941.47;1728664;81;26412;-69
2021/08/30 01:45:35;;;;;;;21.48;17.62;;;;;;;11.17;81.54;99940.21;1758214;81;25650;-68
2021/08/30 01:48:07;;;;;;;22.00;17.85;;;;;;;11.15;81.59;99936.47;1728557;81;27424;-69
2021/08/30 01:50:38;;;;;;;19.98;16.77;;;;;;;11.14;81.77;99936.78;1728000;81;25892;-68
2021/08/30 01:53:06;;;;;;;20.12;16.82;;;;;;;11.11;81.73;99936.86;1758179;81;25784;-68
2021/08/30 01:55:48;;;;;;;21.52;17.05;;;;;;;11.09;81.77;99937.73;1758195;81;25730;-68
2021/08/30 02:00:49;;;;;;;24.45;17.30;;;;;;;11.03;81.78;99929.00;1728081;81;27406;-68
2021/08/30 02:03:23;;;;;;;22.62;16.75;;;;;;;11.02;82.00;99921.20;1758097;81;27136;-68
2021/08/30 02:06:05;;;;;;;19.32;16.15;;;;;;;11.02;82.11;99914.44;1758099;81;25778;-68
2021/08/30 02:08:34;;;;;;;24.40;16.23;;;;;;;11.03;82.10;99915.47;1758222;81;25693;-68
2021/08/30 02:11:06;;;;;;;21.77;17.25;;;;;;;11.02;81.96;99909.81;1758389;81;25705;-68
2021/08/30 02:13:34;;;;;;;20.30;17.00;;;;;;;11.03;82.05;99910.59;1758220;81;27490;-69
2021/08/30 02:16:03;;;;;;;22.55;16.37;;;;;;;11.03;82.14;99906.53;1758087;81;26425;-69
2021/08/30 02:18:40;;;;;;;22.80;16.05;;;;;;;11.02;81.93;99912.52;1758272;81;25746;-68
2021/08/30 02:21:23;;;;;;;23.73;16.80;;;;;;;11.01;81.91;99910.91;1757870;81;25859;-68
2021/08/30 02:24:19;;;;;;;24.50;16.32;;;;;;;11.00;81.99;99895.81;1758183;81;25653;-67
2021/08/30 02:27:03;;;;;;;18.75;16.73;;;;;;;10.99;82.15;99896.91;1757637;81;28019;-67
2021/08/30 02:29:51;;;;;;;22.25;17.55;;;;;;;10.98;82.26;99887.77;1758102;81;25717;-67
2021/08/30 02:32:21;;;;;;;20.80;16.25;;;;;;;10.98;82.42;99889.93;1757275;81;26394;-67
2021/08/30 02:34:55;;;;;;;19.32;16.80;;;;;;;10.99;82.54;99882.03;1759872;81;25857;-67
2021/08/30 02:37:28;;;;;;;21.93;18.12;;;;;;;11.01;82.75;99885.77;1759819;81;25800;-67
2021/08/30 02:39:57;;;;;;;24.90;18.10;;;;;;;11.01;82.82;99877.08;1761547;81;27339;-67
2021/08/30 02:42:25;;;;;;;22.55;19.48;;;;;;;11.01;82.79;99868.97;1761582;81;25808;-67
2021/08/30 02:44:51;;;;;;;20.52;17.42;;;;;;;11.03;82.85;99872.70;1761482;81;25732;-67
2021/08/30 02:47:20;;;;;;;22.62;18.37;;;;;;;11.04;82.88;99875.66;1761353;81;26369;-67
2021/08/30 02:49:47;;;;;;;26.23;18.80;;;;;;;11.05;82.88;99886.73;1733719;81;25856;-67
2021/08/30 02:52:16;;;;;;;25.30;18.55;;;;;;;11.05;82.79;99885.92;1761352;81;28300;-67
2021/08/30 02:54:45;;;;;;;24.37;18.10;;;;;;;11.06;82.81;99888.30;1761762;81;25848;-67
2021/08/30 02:57:13;;;;;;;21.85;18.92;;;;;;;11.06;82.82;99887.52;1761784;81;26104;-67
2021/08/30 02:59:41;;;;;;;23.42;18.23;;;;;;;11.08;82.93;99885.28;1733245;81;26037;-67
2021/08/30 03:02:09;;;;;;;18.60;16.70;;;;;;;11.07;82.92;99883.14;1761691;81;25847;-67
2021/08/30 03:04:37;;;;;;;22.80;16.85;;;;;;;11.08;82.99;99884.71;1761549;81;27299;-68
2021/08/30 03:07:04;;;;;;;21.82;16.30;;;;;;;11.07;82.95;99872.31;1761436;81;25895;-68
2021/08/30 03:09:31;;;;;;;20.60;15.78;;;;;;;11.09;82.84;99876.06;1761656;81;25728;-68
2021/08/30 03:12:00;;;;;;;20.37;16.10;;;;;;;11.08;82.70;99883.36;1761457;81;25663;-68
2021/08/30 03:14:28;;;;;;;21.30;15.70;;;;;;;11.08;82.52;99887.98;1761710;81;25833;-68
2021/08/30 03:17:00;;;;;;;18.42;15.53;;;;;;;11.06;82.41;99886.17;1761555;81;27320;-68
2021/08/30 03:19:28;;;;;;;17.00;15.28;;;;;;;11.05;82.31;99885.38;1731606;81;26512;-68
2021/08/30 03:21:56;;;;;;;20.15;15.38;;;;;;;11.05;82.40;99884.56;1761508;81;25828;-68
2021/08/30 03:24:25;;;;;;;22.37;16.67;;;;;;;11.04;82.48;99885.13;1761185;81;25737;-67
2021/08/30 03:26:54;;;;;;;20.60;17.05;;;;;;;11.03;82.59;99870.00;1761258;81;26403;-67
2021/08/30 03:29:22;;;;;;;19.83;16.80;;;;;;;11.03;82.59;99872.70;1761537;81;27416;-67
2021/08/30 03:31:51;;;;;;;22.82;16.85;;;;;;;11.01;82.66;99866.26;1761030;81;26467;-67
2021/08/30 03:34:19;;;;;;;18.77;15.98;;;;;;;11.01;82.80;99873.02;1761040;81;25778;-67
2021/08/30 03:36:47;;;;;;;23.55;17.37;;;;;;;11.00;82.89;99882.28;1733061;81;26007;-67
2021/08/30 03:39:16;;;;;;;22.20;17.23;;;;;;;10.98;83.05;99879.11;1761346;81;26073;-67
2021/08/30 03:41:44;;;;;;;22.13;17.95;;;;;;;10.99;83.17;99882.59;1732921;81;27209;-67
2021/08/30 03:44:12;;;;;;;24.35;17.57;;;;;;;11.00;83.24;99884.98;1761285;81;25789;-67
2021/08/30 03:46:40;;;;;;;21.45;17.37;;;;;;;11.00;83.31;99884.98;1761341;81;26008;-67
2021/08/30 03:49:07;;;;;;;20.52;17.42;;;;;;;11.01;83.37;99885.20;1761171;81;26426;-67
2021/08/30 03:51:35;;;;;;;24.63;18.70;;;;;;;11.03;83.51;99887.59;1761379;81;25789;-67
2021/08/30 03:54:03;;;;;;;23.15;18.05;;;;;;;11.06;83.64;99889.66;1733324;81;27336;-67
2021/08/30 03:56:30;;;;;;;25.92;19.55;;;;;;;11.09;83.82;99889.02;1761225;81;25801;-67
2021/08/30 03:58:59;;;;;;;22.35;17.55;;;;;;;11.12;83.81;99890.30;1761409;81;25789;-66
2021/08/30 04:01:27;;;;;;;22.90;16.82;;;;;;;11.15;83.99;99893.16;1761534;81;26325;-67
2021/08/30 04:04:00;;;;;;;26.42;17.10;;;;;;;11.20;83.87;99896.23;1761401;81;25810;-67
2021/08/30 04:06:30;;;;;;;24.63;16.70;;;;;;;11.21;83.73;99894.56;1761607;81;27381;-67
2021/08/30 04:08:56;;;;;;;;;;;;;;;11.24;83.50;99895.84;1763776;81;25812;-67
2021/08/30 04:11:24;;;;;;;21.00;16.67;;;;;;;11.24;83.61;99904.50;1761388;81;25900;-67
2021/08/30 04:13:52;;;;;;;22.35;16.30;;;;;;;11.25;83.71;99897.41;1761451;81;25801;-67
2021/08/30 04:16:19;;;;;;;19.70;17.07;;;;;;;11.28;83.92;99892.70;1761497;81;25793;-67
2021/08/30 04:18:46;;;;;;;20.97;17.42;;;;;;;11.33;84.23;99895.24;1733427;81;28253;-67
2021/08/30 04:21:12;;;;;;;21.75;17.20;;;;;;;11.41;84.54;99893.64;1761447;81;25805;-67
2021/08/30 04:23:38;;;;;;;21.48;17.60;;;;;;;11.47;84.68;99884.77;1761500;81;25813;-67
2021/08/30 04:26:04;;;;;;;21.55;18.00;;;;;;;11.54;84.86;99883.70;1761474;81;26396;-67
2021/08/30 04:28:31;;;;;;;24.95;18.15;;;;;;;11.62;85.14;99884.80;1761635;81;25700;-67
2021/08/30 04:30:57;;;;;;;22.55;16.77;;;;;;;11.68;85.30;99881.58;1761563;81;27922;-67
2021/08/30 04:33:24;;;;;;;21.93;17.67;;;;;;;11.78;85.42;99885.81;1761458;81;25877;-67
2021/08/30 04:35:50;;;;;;;23.05;16.70;;;;;;;11.85;85.52;99883.41;1761448;81;25749;-67
2021/08/30 04:38:17;;;;;;;23.07;17.73;;;;;;;11.93;85.55;99892.63;1761353;81;25728;-67
2021/08/30 04:40:43;;;;;;;22.95;17.10;;;;;;;11.99;85.41;99895.96;1733619;81;25769;-67
2021/08/30 04:43:11;;;;;;;23.38;16.77;;;;;;;12.05;85.36;99900.05;1761413;81;27376;-68
2021/08/30 04:45:39;;;;;;;25.37;16.27;;;;;;;12.08;85.25;99890.70;1761352;81;25736;-68
2021/08/30 04:48:06;;;;;;;21.52;15.93;;;;;;;12.14;85.23;99903.52;1761552;81;25755;-66
2021/08/30 04:50:33;;;;;;;23.47;15.85;;;;;;;12.18;85.20;99898.23;1761497;81;25844;-67
2021/08/30 04:53:00;;;;;;;17.75;15.45;;;;;;;12.22;85.19;99908.64;1733275;81;25730;-67
2021/08/30 04:55:27;;;;;;;28.92;16.07;;;;;;;12.25;85.09;99903.35;1761649;81;27474;-68
2021/08/30 04:57:54;;;;;;;16.30;14.60;;;;;;;12.28;85.18;99901.91;1761311;81;25739;-68
2021/08/30 05:00:20;;;;;;;19.95;15.70;;;;;;;12.35;85.28;99903.53;1761530;81;26285;-68
2021/08/30 05:02:46;;;;;;;22.70;17.82;;;;;;;12.38;85.31;99903.41;1761456;81;25888;-68
2021/08/30 05:05:12;;;;;;;23.42;16.90;;;;;;;12.46;85.53;99905.28;1761369;81;25734;-68
2021/08/30 05:07:39;;;;;;;21.17;16.48;;;;;;;12.51;85.62;99909.96;1761350;81;28490;-68
2021/08/30 05:10:06;;;;;;;18.37;15.60;;;;;;;12.57;85.75;99900.27;1761273;81;25820;-67
2021/08/30 05:12:33;;;;;;;25.95;17.52;;;;;;;12.64;85.93;99899.95;1761369;81;25868;-68
2021/08/30 05:14:59;;;;;;;22.15;16.73;;;;;;;12.70;85.89;99897.27;1761277;81;26445;-68
2021/08/30 05:17:26;;;;;;;21.55;17.20;;;;;;;12.79;86.33;99900.48;1761544;81;26407;-68
2021/08/30 05:19:53;;;;;;;23.02;18.37;;;;;;;12.86;86.26;99896.66;1761359;81;27572;-67
2021/08/30 05:22:19;;;;;;;26.55;18.25;;;;;;;12.92;86.32;99896.66;1733493;81;25760;-68
2021/08/30 05:24:46;;;;;;;28.20;18.15;;;;;;;12.97;86.31;99891.02;1761491;81;26357;-67
2021/08/30 05:27:12;;;;;;;25.20;16.95;;;;;;;13.05;86.39;99889.36;1733218;81;25760;-68
2021/08/30 05:29:39;;;;;;;27.07;16.93;;;;;;;13.11;86.34;99892.65;1761511;81;25807;-68
2021/08/30 05:32:07;;;;;;;25.32;17.77;;;;;;;13.17;86.39;99897.53;1736587;81;27332;-68
2021/08/30 05:34:33;;;;;;;27.25;17.27;;;;;;;13.23;86.52;99900.27;1756917;80;26366;-67
2021/08/30 05:36:59;;;;;;;30.32;18.12;;;;;;;13.31;86.52;99901.29;1782660;80;26420;-68
2021/08/30 05:39:26;;;;;;;37.98;18.00;;;;;;;13.37;86.58;99894.55;1738715;81;26401;-67
2021/08/30 05:41:53;;;;;;;23.70;17.35;;;;;;;13.43;86.41;99897.84;1735730;82;26111;-67
2021/08/30 05:44:19;;;;;;;26.85;17.80;;;;;;;13.49;86.54;99894.35;1736011;82;27389;-68
2021/08/30 05:46:46;;;;;;;23.25;17.57;;;;;;;13.55;86.60;99896.52;1735733;82;25746;-68
2021/08/30 05:49:12;;;;;;;33.73;18.50;;;;;;;13.58;86.21;99889.02;1735668;82;25776;-68
2021/08/30 05:51:38;;;;;;;21.70;18.55;;;;;;;13.66;86.43;99887.91;1735853;82;25704;-68
2021/08/30 05:54:05;;;;;;;22.00;18.67;;;;;;;13.71;86.48;99894.48;1735920;82;25802;-68
2021/08/30 05:56:31;;;;;;;21.45;17.85;;;;;;;13.77;86.36;99884.95;1735748;82;27342;-68
2021/08/30 05:58:57;;;;;;;24.92;18.25;;;;;;;13.82;86.29;99891.52;1735740;82;25792;-68
2021/08/30 06:01:23;;;;;;;22.85;18.15;;;;;;;13.86;86.09;99891.63;1706344;82;25714;-67
2021/08/30 06:03:50;;;;;;;28.95;18.80;;;;;;;13.91;86.18;99887.31;1735622;82;25667;-67
2021/08/30 06:06:16;;;;;;;30.82;19.25;;;;;;;13.95;86.15;99897.75;1735883;82;25808;-67
2021/08/30 06:08:43;;;;;;;25.32;18.23;;;;;;;13.99;86.31;99887.77;1735918;82;27308;-67
2021/08/30 06:11:09;;;;;;;32.10;18.85;;;;;;;14.04;86.14;99888.90;1735532;82;25668;-68
2021/08/30 06:13:35;;;;;;;25.17;18.40;;;;;;;14.08;85.90;99889.00;1735903;82;29865;-67
2021/08/30 06:16:02;;;;;;;25.60;17.85;;;;;;;14.11;86.01;99889.11;1735886;82;25688;-67
2021/08/30 06:18:28;;;;;;;26.30;17.57;;;;;;;14.15;85.90;99886.52;1735742;82;25694;-67
2021/08/30 06:20:55;;;;;;;27.67;18.73;;;;;;;14.20;86.08;99891.72;1735926;82;27358;-66
2021/08/30 06:23:21;;;;;;;27.30;18.57;;;;;;;14.25;86.06;99892.84;1735833;82;25748;-67
2021/08/30 06:25:48;;;;;;;25.35;18.65;;;;;;;14.29;85.95;99886.94;1735829;82;25686;-67
2021/08/30 06:28:15;;;;;;;20.82;18.35;;;;;;;14.32;85.82;99882.17;1736035;82;25749;-67
2021/08/30 06:30:42;;;;;;;23.87;17.55;;;;;;;14.38;85.81;99881.35;1736146;82;26354;-67
2021/08/30 06:33:10;;;;;;;22.52;17.52;;;;;;;14.42;85.60;99876.02;1735795;82;27381;-67
2021/08/30 06:35:38;;;;;;;27.62;18.52;;;;;;;14.45;85.59;99869.88;1745253;81;25899;-68
2021/08/30 06:38:04;;;;;;;25.90;18.10;;;;;;;14.48;85.79;99869.98;1753437;80;25792;-70
2021/08/30 06:40:31;;;;;;;20.50;17.05;;;;;;;14.51;85.52;99874.74;1735472;81;26337;-69
2021/08/30 06:42:57;;;;;;;22.07;17.30;;;;;;;14.55;85.56;99870.18;1734437;82;25860;-71
2021/08/30 06:45:27;;;;;;;26.10;17.62;;;;;;;14.58;85.34;99867.34;1734737;81;27315;-70
2021/08/30 06:47:56;;;;;;;20.10;17.40;;;;;;;14.61;85.21;99868.60;1735453;81;25798;-69
2021/08/30 06:50:23;;;;;;;23.73;17.67;;;;;;;14.63;85.06;99871.80;1737155;81;25731;-70
2021/08/30 06:52:52;;;;;;;29.60;18.02;;;;;;;14.63;84.88;99877.23;1758889;81;25752;-70
2021/08/30 06:55:18;;;;;;;27.82;18.32;;;;;;;14.61;84.72;99868.60;1734548;81;25775;-69
2021/08/30 06:57:44;;;;;;;22.58;17.40;;;;;;;14.62;84.70;99875.64;1734660;82;27335;-69
2021/08/30 07:00:13;;;;;;;25.72;17.98;;;;;;;14.61;84.79;99874.86;1734563;82;25732;-69
2021/08/30 07:02:39;;;;;;;27.27;18.12;;;;;;;14.62;84.75;99875.64;1734454;82;26385;-69
2021/08/30 07:05:06;;;;;;;20.08;17.98;;;;;;;14.59;84.62;99874.39;1735516;81;25634;-69
2021/08/30 07:07:32;;;;;;;21.85;17.00;;;;;;;14.57;84.59;99874.73;1743089;81;25677;-69
2021/08/30 07:09:59;;;;;;;19.45;16.52;;;;;;;14.57;84.59;99871.20;1734388;82;27349;-69
2021/08/30 07:12:26;;;;;;;19.92;17.57;;;;;;;14.56;84.66;99874.50;1744685;81;25765;-70
2021/08/30 07:14:52;;;;;;;20.97;18.00;;;;;;;14.57;84.79;99871.20;1742941;81;25726;-70
2021/08/30 07:17:19;;;;;;;19.87;17.57;;;;;;;14.58;84.75;99880.95;1746387;81;26187;-71
2021/08/30 07:19:46;;;;;;;21.60;17.82;;;;;;;14.60;84.89;99876.56;1743014;81;25796;-70
2021/08/30 07:22:13;;;;;;;19.45;17.30;;;;;;;14.62;85.10;99870.20;1743699;81;27338;-70
2021/08/30 07:24:40;;;;;;;19.70;17.70;;;;;;;14.65;85.18;99870.30;1746734;81;25783;-70
2021/08/30 07:27:06;;;;;;;22.40;18.48;;;;;;;14.69;85.29;99869.84;1742292;81;25766;-70
2021/08/30 07:29:33;;;;;;;22.75;19.15;;;;;;;14.73;85.18;99867.21;1741756;80;25894;-70
2021/08/30 07:32:00;;;;;;;21.30;17.73;;;;;;;14.79;85.49;99878.06;1733552;81;25800;-70
2021/08/30 07:34:27;;;;;;;20.77;18.07;;;;;;;14.84;85.47;99868.28;1766900;80;27951;-69
2021/08/30 07:36:54;;;;;;;23.30;18.32;;;;;;;14.88;85.18;99867.01;1752848;81;25730;-69
2021/08/30 07:39:22;;;;;;;22.05;17.07;;;;;;;14.90;85.01;99868.84;1743010;81;25813;-70
2021/08/30 07:41:49;;;;;;;23.77;18.40;;;;;;;14.90;84.66;99862.03;1740737;81;25951;-71
2021/08/30 07:44:17;;;;;;;19.48;16.97;;;;;;;14.90;84.48;99864.75;1705519;81;25761;-71
2021/08/30 07:46:43;;;;;;;19.42;16.05;;;;;;;14.90;84.44;99866.90;1727981;81;27247;-69
2021/08/30 07:49:12;;;;;;;21.33;19.15;;;;;;;14.88;84.54;99864.28;1739747;81;25799;-69
2021/08/30 07:51:39;;;;;;;23.10;20.05;;;;;;;14.90;84.65;99869.62;1732731;81;30534;-70
2021/08/30 07:54:07;;;;;;;21.77;18.27;;;;;;;14.92;84.82;99873.36;1724216;82;25741;-69
2021/08/30 07:56:40;;;;;;;23.32;17.73;;;;;;;14.93;84.84;99869.48;1748752;81;25902;-70
2021/08/30 07:59:08;;;;;;;22.27;18.60;;;;;;;14.94;85.03;99860.18;1722762;82;28097;-70
2021/08/30 08:01:36;;;;;;;30.12;23.95;;;;;;;14.94;85.06;99863.69;1718528;83;25713;-70
2021/08/30 08:04:04;;;;;;;31.80;28.42;;;;;;;14.96;85.18;99859.25;1734343;81;25732;-71
2021/08/30 08:06:30;;;;;;;34.20;26.70;;;;;;;14.97;85.28;99855.41;1735646;81;25749;-70
2021/08/30 08:08:57;;;;;;;29.75;25.92;;;;;;;15.02;85.47;99858.45;1731936;81;25706;-70
2021/08/30 08:11:25;;;;;;;27.60;23.60;;;;;;;15.05;85.52;99859.09;1730216;81;27366;-70
2021/08/30 08:13:51;;;;;;;25.50;21.40;;;;;;;15.08;85.46;99860.54;1732294;81;26408;-71
2021/08/30 08:16:18;;;;;;;24.00;21.52;;;;;;;15.15;85.79;99860.52;1766617;81;26066;-69
2021/08/30 08:18:44;;;;;;;25.12;22.07;;;;;;;15.23;86.03;99867.16;1763080;81;26016;-70
2021/08/30 08:21:11;;;;;;;23.80;21.25;;;;;;;15.34;86.29;99870.72;1736350;81;25731;-70
2021/08/30 08:23:38;;;;;;;24.52;21.60;;;;;;;15.47;86.68;99864.04;1746319;81;28072;-70
2021/08/30 08:26:04;;;;;;;27.25;21.60;;;;;;;15.63;86.51;99867.56;1736843;81;26419;-70
2021/08/30 08:28:31;;;;;;;29.05;22.75;;;;;;;15.77;86.40;99867.12;1728964;82;25872;-70
2021/08/30 08:30:57;;;;;;;26.77;22.77;;;;;;;15.90;86.34;99865.06;1726321;81;25954;-71
2021/08/30 08:33:23;;;;;;;24.47;21.95;;;;;;;16.05;86.39;99864.23;1718758;82;25845;-70
2021/08/30 08:35:50;;;;;;;25.30;22.60;;;;;;;16.22;86.57;99861.67;1715354;82;27543;-71
2021/08/30 08:38:17;;;;;;;25.60;22.02;;;;;;;16.46;87.06;99863.14;1738600;82;26435;-72
2021/08/30 08:40:43;;;;;;;28.05;23.25;;;;;;;16.64;86.49;99861.56;1738831;82;25789;-73
2021/08/30 08:43:15;;;;;;;27.20;23.73;;;;;;;16.82;85.96;99860.52;1711320;82;25826;-70
2021/08/30 08:45:43;;;;;;;25.80;22.85;;;;;;;17.01;85.90;99860.31;1729693;82;25791;-69
2021/08/30 08:48:11;;;;;;;29.32;24.30;;;;;;;17.18;85.53;99855.17;1727143;82;27329;-69
2021/08/30 08:50:38;;;;;;;27.85;23.73;;;;;;;17.38;85.49;99853.73;1718541;82;25777;-69
2021/08/30 08:53:06;;;;;;;27.80;23.22;;;;;;;17.54;84.87;99860.45;1692527;84;25842;-69
2021/08/30 08:55:35;;;;;;;29.20;24.32;;;;;;;17.61;83.95;99856.45;1718278;82;25766;-69
2021/08/30 08:58:12;;;;;;;26.73;23.93;;;;;;;17.72;83.90;99856.60;1723374;82;25793;-71
2021/08/30 09:00:42;;;;;;;32.15;24.35;;;;;;;17.81;83.67;99850.31;1719034;82;27870;-71
2021/08/30 09:03:16;;;;;;;26.65;23.30;;;;;;;17.97;83.56;99852.12;1720275;82;25761;-70
2021/08/30 09:05:43;;;;;;;25.52;22.85;;;;;;;18.10;83.65;99841.16;1713325;82;26488;-69
2021/08/30 09:08:41;;;;;;;24.05;21.45;;;;;;;18.26;83.33;99836.86;1708245;82;25758;-69
2021/08/30 09:11:21;;;;;;;23.98;21.23;;;;;;;18.40;82.78;99835.66;1693375;83;26627;-71
2021/08/30 09:13:57;;;;;;;25.35;19.95;;;;;;;18.53;82.13;99834.05;1717951;82;27338;-73
2021/08/30 09:16:26;;;;;;;22.30;20.00;;;;;;;18.63;81.62;99827.32;1718183;82;25789;-75
2021/08/30 09:19:08;;;;;;;20.60;18.60;;;;;;;18.69;81.08;99826.98;1718715;82;25863;-72
2021/08/30 09:21:37;;;;;;;20.48;18.40;;;;;;;18.71;80.12;99827.39;1721043;82;25752;-71
2021/08/30 09:24:13;;;;;;;22.80;19.20;;;;;;;18.69;79.82;99824.24;1726430;82;25746;-70
2021/08/30 09:26:47;;;;;;;20.75;18.48;;;;;;;18.69;79.62;99820.14;1753078;80;29616;-70
2021/08/30 09:29:21;;;;;;;20.55;18.60;;;;;;;18.67;79.33;99817.17;1752122;80;26370;-72
2021/08/30 09:32:06;;;;;;;20.88;18.67;;;;;;;18.66;79.14;99814.81;1749577;80;25883;-69
2021/08/30 09:34:53;;;;;;;21.70;19.40;;;;;;;18.64;79.00;99808.36;1755003;80;26243;-73
2021/08/30 09:37:23;;;;;;;21.00;18.62;;;;;;;18.65;79.03;99808.55;1746697;81;25751;-72
2021/08/30 09:39:56;;;;;;;21.40;19.30;;;;;;;18.70;79.04;99814.88;1721365;82;27345;-75
2021/08/30 09:42:24;;;;;;;19.85;17.73;;;;;;;18.74;79.10;99810.98;1727543;82;25747;-76
2021/08/30 09:44:51;;;;;;;19.23;17.35;;;;;;;18.77;78.99;99810.23;1726373;82;25769;-74
2021/08/30 09:47:22;;;;;;;19.23;17.30;;;;;;;18.83;78.91;99811.52;1704132;82;25975;-74
2021/08/30 09:49:52;;;;;;;19.92;17.50;;;;;;;18.87;78.36;99806.06;1730504;82;25771;-76
2021/08/30 09:52:23;;;;;;;18.92;16.42;;;;;;;18.93;78.52;99806.50;1728809;82;28125;-77
2021/08/30 09:54:51;;;;;;;17.12;15.58;;;;;;;19.02;78.37;99805.03;1737376;82;26308;-74
2021/08/30 09:57:18;;;;;;;16.70;15.00;;;;;;;19.12;78.12;99806.86;1748274;82;25449;-82
2021/08/30 09:59:46;;;;;;;14.93;13.53;;;;;;;19.21;78.00;99799.91;1739613;82;25948;-71
2021/08/30 10:02:15;;;;;;;15.23;13.72;;;;;;;19.25;77.43;99795.81;1718372;82;25753;-74
2021/08/30 10:04:44;;;;;;;18.15;14.28;;;;;;;19.31;77.35;99796.27;1715577;82;27404;-73
2021/08/30 10:07:12;;;;;;;14.50;13.00;;;;;;;19.40;77.38;99790.64;1748515;82;26414;-73
2021/08/30 10:09:45;;;;;;;17.90;12.63;;;;;;;19.46;76.73;99792.46;1748395;82;25740;-75
2021/08/30 10:12:12;;;;;;;14.28;12.85;;;;;;;19.52;76.79;99787.39;1748210;82;25697;-71
2021/08/30 10:14:39;;;;;;;14.33;12.58;;;;;;;19.56;76.12;99784.89;1748305;82;25825;-76
2021/08/30 10:17:07;;;;;;;12.65;11.45;;;;;;;19.59;75.79;99789.59;1748292;81;28779;-72
2021/08/30 10:19:40;;;;;;;13.08;11.68;;;;;;;19.64;75.35;99782.19;1748294;81;25776;-74
2021/08/30 10:22:19;;;;;;;12.80;11.50;;;;;;;19.68;75.14;99781.61;1748320;82;25674;-71
2021/08/30 10:24:46;;;;;;;;;;;;;;;19.70;74.83;99780.06;1751585;82;26021;-73
2021/08/30 10:27:14;;;;;;;10.88;9.78;;;;;;;19.77;74.50;99773.27;1748899;81;25736;-72
2021/08/30 10:29:43;;;;;;;11.25;9.93;;;;;;;19.82;74.43;99775.44;1748806;82;27384;-75
2021/08/30 10:32:25;;;;;;;11.35;8.88;;;;;;;19.85;74.29;99772.70;1748916;82;25788;-73
2021/08/30 10:34:54;;;;;;;9.95;9.05;;;;;;;19.87;73.57;99770.95;1748910;82;25722;-74
2021/08/30 10:37:21;;;;;;;11.97;8.38;;;;;;;19.90;73.51;99766.88;1760598;80;25879;-74
2021/08/30 10:39:54;;;;;;;9.90;8.35;;;;;;;19.96;73.33;99774.16;1775629;80;25718;-73
2021/08/30 10:42:22;;;;;;;9.10;8.08;;;;;;;20.01;73.31;99770.26;1731613;81;28597;-73
2021/08/30 10:45:00;;;;;;;8.33;6.72;;;;;;;20.01;72.94;99771.03;1756703;81;25732;-71
2021/08/30 10:47:36;;;;;;;7.67;6.80;;;;;;;19.97;71.71;99763.36;1774776;80;25796;-74
2021/08/30 10:50:06;;;;;;;8.10;6.40;;;;;;;19.91;71.16;99770.41;1762894;81;25771;-72
2021/08/30 10:52:41;;;;;;;12.20;6.72;;;;;;;19.85;71.01;99761.73;1772902;80;25699;-72
2021/08/30 10:55:19;;;;;;;8.63;6.62;;;;;;;19.82;70.89;99769.95;1775715;80;27384;-73
2021/08/30 10:57:52;;;;;;;11.08;6.42;;;;;;;19.79;70.98;99764.66;1756940;81;26127;-72
2021/08/30 11:00:31;;;;;;;8.35;6.90;;;;;;;19.75;71.04;99761.90;1756786;81;25705;-74
2021/08/30 11:02:58;;;;;;;7.53;6.80;;;;;;;19.79;70.94;99777.00;1775575;80;26212;-72
2021/08/30 11:05:28;;;;;;;7.97;6.22;;;;;;;19.82;70.39;99761.72;1775762;80;25792;-72
2021/08/30 11:07:55;;;;;;;6.85;5.90;;;;;;;19.85;70.65;99756.84;1762921;80;28066;-73
2021/08/30 11:10:28;;;;;;;7.75;6.95;;;;;;;19.93;70.50;99757.85;1726836;81;25859;-74
2021/08/30 11:12:58;;;;;;;10.70;6.62;;;;;;;19.99;70.55;99760.23;1725292;81;25461;-72
2021/08/30 11:15:31;;;;;;;7.10;6.10;;;;;;;20.01;70.22;99761.43;1736586;81;26204;-72
2021/08/30 11:18:07;;;;;;;6.60;5.83;;;;;;;20.04;70.18;99754.36;1733526;82;25966;-73
2021/08/30 11:20:33;;;;;;;7.28;6.22;;;;;;;20.09;69.76;99752.05;1734286;82;27816;-71
2021/08/30 11:23:00;;;;;;;7.42;5.80;;;;;;;20.13;69.29;99751.47;1733851;82;25772;-71
2021/08/30 11:25:35;;;;;;;6.42;5.33;;;;;;;20.17;69.19;99750.10;1734309;82;25748;-70
2021/08/30 11:28:16;;;;;;;6.60;5.35;;;;;;;20.23;69.30;99754.06;1734300;82;25676;-62
2021/08/30 11:30:43;;;;;;;7.35;5.45;;;;;;;20.34;69.08;99748.59;1707967;82;25756;-62